AirNav   Bose ProFlight Series 2 Headset
 
 380 users online  

I83 Salem Municipal Airport
Salem, Indiana, USA

GOING TO SALEM?


FAA INFORMATION EFFECTIVE 26 MARCH 2020

Location

FAA Identifier: I83
Lat/Long: 38-36-14.6725N 086-09-08.1058W
38-36.244542N 086-09.135097W
38.6040757,-86.1522516
(estimated)
Elevation: 839.9 ft. / 256 m (estimated)
Variation: 04W (2015)
From city: 2 miles W of SALEM, IN
Time zone: UTC -4 (UTC -5 during Standard Time)
Zip code: 47167

Airport Operations

Airport use: Open to the public
Control tower: no
ARTCC: INDIANAPOLIS CENTER
FSS: TERRE HAUTE FLIGHT SERVICE STATION
NOTAMs facility: HUF (NOTAM-D service available)
Attendance: IREG
Wind indicator: lighted
Segmented circle: no
Lights: ACTVT PAPI RWY 08; MIRL RWY 08/26 - CTAF. MIRL RWY 08/26 PRESET LOW INTST TO INCR INTST - CTAF.

Airport Communications

CTAF/UNICOM: 123.0
WX AWOS-3 at BFR (20 nm NW): 119.125 (812-275-8306)
  • UNICOM NOT RGRLY MNTRD.

Nearby radio navigation aids

VOR radial/distance  VOR name  Freq  Var
OOMr148/38.9HOOSIER VORTAC110.2002W

 
NDB name  Hdg/Dist  Freq  Var  ID
GODMAN351/39.639603WGOI --. --- ..

Airport Services

Fuel available: 100LL
FUEL AVBL H24 WITH CREDIT CARD.
Parking: buoy and tiedowns
Airframe service: NONE
Powerplant service: NONE

Runway Information

Runway 8/26

Dimensions: 3000 x 75 ft. / 914 x 23 m
Surface: asphalt, in good condition
Weight bearing capacity: 
Single wheel: 30.0
Double wheel: 60.0
Runway edge lights: medium intensity
RUNWAY 8  RUNWAY 26
Latitude: 38-36.191155N38-36.297912N
Longitude: 086-09.442703W086-08.827420W
Elevation: 839.9 ft.816.4 ft.
Traffic pattern: leftleft
Markings: nonprecision, in good conditionnonprecision, in good condition
Visual slope indicator: 2-light PAPI on left (3.00 degrees glide path)
Runway end identifier lights: yesyes
Obstructions: 68 ft. trees, 1500 ft. from runway, 330 ft. right of centerline, 19:1 slope to clear
RWY 08 APCH RATIO 22:1 TO THLD
none

Airport Ownership and Management from official FAA records

Ownership: Publicly-owned
Owner: SALEM BOARD OF AVN CMSNRS
334 N AIRPORT BLVD
SALEM, IN 47167
Phone (812) 883-5858
Manager: LOWELL DEPOY
334 N AIRPORT BLVD
SALEM, IN 47167
Phone (812) 896-4775

Airport Operational Statistics

Aircraft based on the field: 38
Single engine airplanes: 33
Multi engine airplanes: 1
Helicopters: 2
Ultralights: 2
    
Aircraft operations: avg 105/week *
73% local general aviation
27% transient general aviation
* for 12-month period ending 31 December 2018

Additional Remarks

FOR CD CTC LOUISVILLE APCH AT 502-375-7499

Instrument Procedures

There are no published instrument procedures at I83.

Some nearby airports with instrument procedures:

KBFR - Virgil I Grissom Municipal Airport (20 nm NW)
KSER - Freeman Municipal Airport (22 nm NE)
KFRH - French Lick Municipal Airport (23 nm W)
KJVY - Clark Regional Airport (24 nm SE)
KLOU - Bowman Field Airport (32 nm SE)
 
Loc | Ops | Rwys | IFR | FBO | Links
Com | Nav | Svcs | Stats | Notes
Area around I83 (Salem Municipal Airport)
 
Road maps at: MapQuest Bing Google
 
Aerial photo
WARNING: Photo may not be current or correct
Aerial photo of I83 (Salem Municipal Airport)
Photo by Phil Brooks
Photo taken 12-Sep-2019
looking west.

Do you have a better or more recent aerial photo of Salem Municipal Airport that you would like to share? If so, please send us your photo.

 
Sectional chart

 
Airport distance calculator
Flying to Salem Municipal Airport? Find the distance to fly.

From to I83

Sunrise and sunset
Times for 29-Mar-2020
 Local
(UTC-4)
 Zulu
(UTC)
Morning civil twilight07:0711:07
Sunrise07:3411:34
Sunset20:0500:05
Evening civil twilight20:3100:31

Current date and time
Zulu (UTC)  29-Mar-2020 11:13:02
Local (UTC-4)  29-Mar-2020 07:13:02
 
METAR
KFRH 
23nm W 
291055Z AUTO 22009G18KT 10SM CLR 16/08 A2973 RMK AO1
KJVY 
24nm SE 
291055Z AUTO 23012G19KT 10SM CLR 19/12 A2974 RMK AO2 T01850121
KSDF 
32nm SE 
291056Z 23014G27KT 10SM CLR 19/11 A2975 RMK AO2 PK WND 26028/1027 SLP069 T01890111 $
KLOU 
33nm SE 
291053Z 22012KT 10SM FEW037 19/12 A2974 RMK AO2 PK WND 22029/1023 SLP067 T01890117
KIMS 
34nm E 
291055Z AUTO 22010G22KT 10SM CLR 17/12 A2973 RMK AO1
KBMG 
39nm NW 
291053Z 22013G21KT 10SM CLR 16/08 A2967 RMK AO2 PK WND 24026/1017 SLP040 T01610083
KBAK 
41nm N 
291045Z 22019G28KT 10SM SCT035 SCT042 BKN060 17/11 A2966
KHNB 
43nm SW 
291056Z AUTO 22016G27KT 10SM CLR 16/08 A2974 RMK AO2 PK WND 22027/1052 SLP068 T01610083
KFTK 
44nm S 
291056Z AUTO 22017KT 10SM CLR 17/11 A2977 RMK AO2 SLP079 T01730107 $
KDCY 
46nm W 
291055Z AUTO 22012KT 10SM CLR 15/07 A2970 RMK AO2 T01530069
TAF
KSDF 
32nm SE 
290521Z 2906/3012 20009G20KT P6SM SCT060 WS020/22046KT FM291000 22014G26KT P6SM SCT070 FM291500 25025KT P6SM SKC FM300000 25010KT P6SM SKC
KBMG 
39nm NW 
290526Z 2906/3006 22014G27KT P6SM VCSH SCT025 BKN040 TEMPO 2906/2908 3SM -SHRA BR BKN025 FM290900 23015G23KT P6SM SCT150 FM291500 24018G32KT P6SM BKN025 FM291800 24022G36KT P6SM SCT080 FM300400 26010KT P6SM SKC AMD LTD TO CLD VIS AND WIND TIL 291300
NOTAMs
Click for the latest NOTAMs
NOTAMs are issued by the DoD/FAA and will open in a separate window not controlled by AirNav.

 

 
 

FBO, Fuel Providers, and Aircraft Ground Support

  
 Business Name 
 
 Contact 
 
 Services / Description 
 
Fuel Prices
 
Comments
  
Salem Municipal Airport 812-883-4265
812-883-4264
[web site]
[email]
Aviation fuel, Hangar leasing / sales, Public telephone, Internet access, Restrooms

More info about Salem Municipal Airport
independent
100LL
SS $4.40 
 Updated 13-Mar-2020
 
   write
SS=Self service
Update Fuel Prices
 

Would you like to see your business listed on this page?

 If your business provides an interesting product or service to pilots, flight crews, aircraft, or users of the Salem Municipal Airport, you should consider listing it here.  To start the listing process, click on the button below
 
Add a business
 

Other Pages about Salem Municipal Airport

cityofsalemin.com/...
 
Update a link
 
Copyright © AirNav, LLC. All rights reserved. Privacy Policy  Contact